sensor_id;sensor_type;location;lat;lon;timestamp;P1;durP1;ratioP1;P2;durP2;ratioP2
173;SDS011;75;48.784;9.364;2022-07-29T00:01:20;13.40;;;12.30;;
173;SDS011;75;48.784;9.364;2022-07-29T00:03:46;15.73;;;12.90;;
173;SDS011;75;48.784;9.364;2022-07-29T00:06:12;14.23;;;12.43;;
173;SDS011;75;48.784;9.364;2022-07-29T00:08:37;12.50;;;11.33;;
173;SDS011;75;48.784;9.364;2022-07-29T00:11:03;13.97;;;12.20;;
173;SDS011;75;48.784;9.364;2022-07-29T00:13:29;15.63;;;12.97;;
173;SDS011;75;48.784;9.364;2022-07-29T00:15:54;13.97;;;12.47;;
173;SDS011;75;48.784;9.364;2022-07-29T00:18:20;12.73;;;12.00;;
173;SDS011;75;48.784;9.364;2022-07-29T00:20:46;12.63;;;11.70;;
173;SDS011;75;48.784;9.364;2022-07-29T00:23:11;14.10;;;11.87;;
173;SDS011;75;48.784;9.364;2022-07-29T00:25:37;14.23;;;12.27;;
173;SDS011;75;48.784;9.364;2022-07-29T00:28:03;16.43;;;13.77;;
173;SDS011;75;48.784;9.364;2022-07-29T00:30:28;13.33;;;12.40;;
173;SDS011;75;48.784;9.364;2022-07-29T00:32:54;15.50;;;13.50;;
173;SDS011;75;48.784;9.364;2022-07-29T00:35:20;13.93;;;12.40;;
173;SDS011;75;48.784;9.364;2022-07-29T00:38:04;13.23;;;12.27;;
173;SDS011;75;48.784;9.364;2022-07-29T00:40:29;16.43;;;13.17;;
173;SDS011;75;48.784;9.364;2022-07-29T00:42:55;13.83;;;12.83;;
173;SDS011;75;48.784;9.364;2022-07-29T00:45:21;14.90;;;12.70;;
173;SDS011;75;48.784;9.364;2022-07-29T00:47:49;14.70;;;13.03;;
173;SDS011;75;48.784;9.364;2022-07-29T00:50:15;16.47;;;12.50;;
173;SDS011;75;48.784;9.364;2022-07-29T00:52:41;13.77;;;12.03;;
173;SDS011;75;48.784;9.364;2022-07-29T00:55:09;13.67;;;11.90;;
173;SDS011;75;48.784;9.364;2022-07-29T00:57:36;15.00;;;12.10;;
173;SDS011;75;48.784;9.364;2022-07-29T01:00:03;12.87;;;11.87;;
173;SDS011;75;48.784;9.364;2022-07-29T01:02:30;14.13;;;11.97;;
173;SDS011;75;48.784;9.364;2022-07-29T01:04:55;13.43;;;12.50;;
173;SDS011;75;48.784;9.364;2022-07-29T01:07:22;14.67;;;13.23;;
173;SDS011;75;48.784;9.364;2022-07-29T01:09:50;13.87;;;12.30;;
173;SDS011;75;48.784;9.364;2022-07-29T01:12:51;14.53;;;11.93;;
173;SDS011;75;48.784;9.364;2022-07-29T01:15:18;13.80;;;12.73;;
173;SDS011;75;48.784;9.364;2022-07-29T01:23:01;15.10;;;13.27;;
173;SDS011;75;48.784;9.364;2022-07-29T01:29:02;16.17;;;13.77;;
173;SDS011;75;48.784;9.364;2022-07-29T01:31:42;16.90;;;14.47;;
173;SDS011;75;48.784;9.364;2022-07-29T01:34:29;15.77;;;13.60;;
173;SDS011;75;48.784;9.364;2022-07-29T01:37:12;15.40;;;13.80;;
173;SDS011;75;48.784;9.364;2022-07-29T01:39:45;16.40;;;14.00;;
173;SDS011;75;48.784;9.364;2022-07-29T01:42:21;15.23;;;13.77;;
173;SDS011;75;48.784;9.364;2022-07-29T01:50:31;17.10;;;13.10;;
173;SDS011;75;48.784;9.364;2022-07-29T01:53:01;15.60;;;14.30;;
173;SDS011;75;48.784;9.364;2022-07-29T01:55:31;14.70;;;13.23;;
173;SDS011;75;48.784;9.364;2022-07-29T01:58:00;15.40;;;14.00;;
173;SDS011;75;48.784;9.364;2022-07-29T02:00:27;15.80;;;14.73;;
173;SDS011;75;48.784;9.364;2022-07-29T02:02:56;16.00;;;13.17;;
173;SDS011;75;48.784;9.364;2022-07-29T02:05:25;19.37;;;14.30;;
173;SDS011;75;48.784;9.364;2022-07-29T02:07:52;15.60;;;13.30;;
173;SDS011;75;48.784;9.364;2022-07-29T02:10:21;17.10;;;13.93;;
173;SDS011;75;48.784;9.364;2022-07-29T02:12:50;14.27;;;13.00;;
173;SDS011;75;48.784;9.364;2022-07-29T02:15:18;13.67;;;12.40;;
173;SDS011;75;48.784;9.364;2022-07-29T02:17:49;15.40;;;13.70;;
173;SDS011;75;48.784;9.364;2022-07-29T02:20:26;13.00;;;12.20;;
173;SDS011;75;48.784;9.364;2022-07-29T02:22:53;15.17;;;13.00;;
173;SDS011;75;48.784;9.364;2022-07-29T02:25:20;14.60;;;13.20;;
173;SDS011;75;48.784;9.364;2022-07-29T02:27:48;15.23;;;13.80;;
173;SDS011;75;48.784;9.364;2022-07-29T02:30:15;14.10;;;12.40;;
173;SDS011;75;48.784;9.364;2022-07-29T02:32:43;13.13;;;12.33;;
173;SDS011;75;48.784;9.364;2022-07-29T02:35:10;14.57;;;13.77;;
173;SDS011;75;48.784;9.364;2022-07-29T02:37:39;17.63;;;13.30;;
173;SDS011;75;48.784;9.364;2022-07-29T02:40:07;15.27;;;13.10;;
173;SDS011;75;48.784;9.364;2022-07-29T02:42:36;15.97;;;13.80;;
173;SDS011;75;48.784;9.364;2022-07-29T02:45:04;18.13;;;14.67;;
173;SDS011;75;48.784;9.364;2022-07-29T02:47:34;14.20;;;12.90;;
173;SDS011;75;48.784;9.364;2022-07-29T02:50:04;15.23;;;13.63;;
173;SDS011;75;48.784;9.364;2022-07-29T02:55:33;14.40;;;12.73;;
173;SDS011;75;48.784;9.364;2022-07-29T03:00:53;12.70;;;12.03;;
173;SDS011;75;48.784;9.364;2022-07-29T03:03:21;14.10;;;12.40;;
173;SDS011;75;48.784;9.364;2022-07-29T03:05:52;15.33;;;13.63;;
173;SDS011;75;48.784;9.364;2022-07-29T03:08:20;15.37;;;12.93;;
173;SDS011;75;48.784;9.364;2022-07-29T03:10:46;14.97;;;13.80;;
173;SDS011;75;48.784;9.364;2022-07-29T03:13:13;16.67;;;13.43;;
173;SDS011;75;48.784;9.364;2022-07-29T03:15:42;15.53;;;12.97;;
173;SDS011;75;48.784;9.364;2022-07-29T03:18:09;14.37;;;12.93;;
173;SDS011;75;48.784;9.364;2022-07-29T03:20:35;14.80;;;13.20;;
173;SDS011;75;48.784;9.364;2022-07-29T03:23:02;16.20;;;13.70;;
173;SDS011;75;48.784;9.364;2022-07-29T03:25:28;15.37;;;13.20;;
173;SDS011;75;48.784;9.364;2022-07-29T03:27:53;16.23;;;14.30;;
173;SDS011;75;48.784;9.364;2022-07-29T03:30:19;15.13;;;14.17;;
173;SDS011;75;48.784;9.364;2022-07-29T03:32:45;15.73;;;13.60;;
173;SDS011;75;48.784;9.364;2022-07-29T03:35:10;19.93;;;14.90;;
173;SDS011;75;48.784;9.364;2022-07-29T03:37:36;15.23;;;13.40;;
173;SDS011;75;48.784;9.364;2022-07-29T03:40:03;14.87;;;13.63;;
173;SDS011;75;48.784;9.364;2022-07-29T03:42:33;20.37;;;14.17;;
173;SDS011;75;48.784;9.364;2022-07-29T03:45:03;16.10;;;14.10;;
173;SDS011;75;48.784;9.364;2022-07-29T03:47:32;15.30;;;13.63;;
173;SDS011;75;48.784;9.364;2022-07-29T03:50:02;23.20;;;14.10;;
173;SDS011;75;48.784;9.364;2022-07-29T03:52:31;16.10;;;13.57;;
173;SDS011;75;48.784;9.364;2022-07-29T03:54:58;12.90;;;12.23;;
173;SDS011;75;48.784;9.364;2022-07-29T03:57:24;13.97;;;13.30;;
173;SDS011;75;48.784;9.364;2022-07-29T03:59:53;15.27;;;12.47;;
173;SDS011;75;48.784;9.364;2022-07-29T04:02:20;12.80;;;12.00;;
173;SDS011;75;48.784;9.364;2022-07-29T04:04:46;13.67;;;11.53;;
173;SDS011;75;48.784;9.364;2022-07-29T04:07:12;13.37;;;12.10;;
173;SDS011;75;48.784;9.364;2022-07-29T04:09:39;16.77;;;12.53;;
173;SDS011;75;48.784;9.364;2022-07-29T04:12:04;13.53;;;12.10;;
173;SDS011;75;48.784;9.364;2022-07-29T04:14:31;14.40;;;12.13;;
173;SDS011;75;48.784;9.364;2022-07-29T04:16:57;13.23;;;12.53;;
173;SDS011;75;48.784;9.364;2022-07-29T04:19:23;13.67;;;11.63;;
173;SDS011;75;48.784;9.364;2022-07-29T04:21:49;12.57;;;11.77;;
173;SDS011;75;48.784;9.364;2022-07-29T04:24:15;12.50;;;11.20;;
173;SDS011;75;48.784;9.364;2022-07-29T04:26:40;14.13;;;12.00;;
173;SDS011;75;48.784;9.364;2022-07-29T04:29:06;13.20;;;11.93;;
173;SDS011;75;48.784;9.364;2022-07-29T04:31:32;14.33;;;12.37;;
173;SDS011;75;48.784;9.364;2022-07-29T04:33:58;15.10;;;11.60;;
173;SDS011;75;48.784;9.364;2022-07-29T04:36:23;14.63;;;11.57;;
173;SDS011;75;48.784;9.364;2022-07-29T04:38:49;13.43;;;11.53;;
173;SDS011;75;48.784;9.364;2022-07-29T04:41:15;12.63;;;11.60;;
173;SDS011;75;48.784;9.364;2022-07-29T04:43:40;12.80;;;11.57;;
173;SDS011;75;48.784;9.364;2022-07-29T04:46:06;13.60;;;11.77;;
173;SDS011;75;48.784;9.364;2022-07-29T04:48:32;14.17;;;11.27;;
173;SDS011;75;48.784;9.364;2022-07-29T04:50:58;13.20;;;10.73;;
173;SDS011;75;48.784;9.364;2022-07-29T04:53:25;13.10;;;11.10;;
173;SDS011;75;48.784;9.364;2022-07-29T04:55:51;11.70;;;10.03;;
173;SDS011;75;48.784;9.364;2022-07-29T04:58:16;12.07;;;10.50;;
173;SDS011;75;48.784;9.364;2022-07-29T05:00:42;13.90;;;11.37;;
173;SDS011;75;48.784;9.364;2022-07-29T05:03:08;13.53;;;10.40;;
173;SDS011;75;48.784;9.364;2022-07-29T05:05:34;12.90;;;10.57;;
173;SDS011;75;48.784;9.364;2022-07-29T05:07:59;15.27;;;11.57;;
173;SDS011;75;48.784;9.364;2022-07-29T05:10:25;11.30;;;10.00;;
173;SDS011;75;48.784;9.364;2022-07-29T05:12:51;16.90;;;10.80;;
173;SDS011;75;48.784;9.364;2022-07-29T05:15:16;10.60;;;9.60;;
173;SDS011;75;48.784;9.364;2022-07-29T05:17:42;16.00;;;10.70;;
173;SDS011;75;48.784;9.364;2022-07-29T05:20:09;10.90;;;9.50;;
173;SDS011;75;48.784;9.364;2022-07-29T05:22:35;10.97;;;8.90;;
173;SDS011;75;48.784;9.364;2022-07-29T05:25:00;11.90;;;9.10;;
173;SDS011;75;48.784;9.364;2022-07-29T05:27:27;8.73;;;8.10;;
173;SDS011;75;48.784;9.364;2022-07-29T05:29:52;9.27;;;8.40;;
173;SDS011;75;48.784;9.364;2022-07-29T05:32:18;10.27;;;8.00;;
173;SDS011;75;48.784;9.364;2022-07-29T05:34:44;7.50;;;7.10;;
173;SDS011;75;48.784;9.364;2022-07-29T05:37:09;7.50;;;7.10;;
173;SDS011;75;48.784;9.364;2022-07-29T05:39:35;7.90;;;7.13;;
173;SDS011;75;48.784;9.364;2022-07-29T05:42:01;7.83;;;6.87;;
173;SDS011;75;48.784;9.364;2022-07-29T05:44:27;7.70;;;6.93;;
173;SDS011;75;48.784;9.364;2022-07-29T05:46:53;7.90;;;6.87;;
173;SDS011;75;48.784;9.364;2022-07-29T05:49:18;9.43;;;6.90;;
173;SDS011;75;48.784;9.364;2022-07-29T05:51:44;7.90;;;6.27;;
173;SDS011;75;48.784;9.364;2022-07-29T05:54:10;7.60;;;6.60;;
173;SDS011;75;48.784;9.364;2022-07-29T05:56:36;6.67;;;6.13;;
173;SDS011;75;48.784;9.364;2022-07-29T05:59:02;9.53;;;6.53;;
173;SDS011;75;48.784;9.364;2022-07-29T06:01:28;7.80;;;6.00;;
173;SDS011;75;48.784;9.364;2022-07-29T06:03:53;8.60;;;6.30;;
173;SDS011;75;48.784;9.364;2022-07-29T06:06:19;9.03;;;6.53;;
173;SDS011;75;48.784;9.364;2022-07-29T06:08:45;6.63;;;5.83;;
173;SDS011;75;48.784;9.364;2022-07-29T06:11:10;7.23;;;6.10;;
173;SDS011;75;48.784;9.364;2022-07-29T06:13:36;6.57;;;5.93;;
173;SDS011;75;48.784;9.364;2022-07-29T06:16:02;7.83;;;6.43;;
173;SDS011;75;48.784;9.364;2022-07-29T06:18:27;7.80;;;6.30;;
173;SDS011;75;48.784;9.364;2022-07-29T06:20:53;7.63;;;6.50;;
173;SDS011;75;48.784;9.364;2022-07-29T06:23:19;6.40;;;5.70;;
173;SDS011;75;48.784;9.364;2022-07-29T06:25:46;6.00;;;5.53;;
173;SDS011;75;48.784;9.364;2022-07-29T06:28:11;6.30;;;5.60;;
173;SDS011;75;48.784;9.364;2022-07-29T06:30:37;8.20;;;5.90;;
173;SDS011;75;48.784;9.364;2022-07-29T06:33:04;8.37;;;5.80;;
173;SDS011;75;48.784;9.364;2022-07-29T06:35:30;7.43;;;5.80;;
173;SDS011;75;48.784;9.364;2022-07-29T06:37:58;7.73;;;5.83;;
173;SDS011;75;48.784;9.364;2022-07-29T06:40:24;5.97;;;5.43;;
173;SDS011;75;48.784;9.364;2022-07-29T06:43:08;7.37;;;5.80;;
173;SDS011;75;48.784;9.364;2022-07-29T06:45:34;7.73;;;5.47;;
173;SDS011;75;48.784;9.364;2022-07-29T06:48:00;7.60;;;5.60;;
173;SDS011;75;48.784;9.364;2022-07-29T06:50:27;7.67;;;5.50;;
173;SDS011;75;48.784;9.364;2022-07-29T06:52:52;6.83;;;5.93;;
173;SDS011;75;48.784;9.364;2022-07-29T06:55:18;8.53;;;5.90;;
173;SDS011;75;48.784;9.364;2022-07-29T06:57:44;7.10;;;5.40;;
173;SDS011;75;48.784;9.364;2022-07-29T07:00:11;8.00;;;5.07;;
173;SDS011;75;48.784;9.364;2022-07-29T07:02:37;7.80;;;5.13;;
173;SDS011;75;48.784;9.364;2022-07-29T07:05:03;6.80;;;5.03;;
173;SDS011;75;48.784;9.364;2022-07-29T07:07:30;6.73;;;5.30;;
173;SDS011;75;48.784;9.364;2022-07-29T07:09:56;6.07;;;5.20;;
173;SDS011;75;48.784;9.364;2022-07-29T07:12:21;5.70;;;4.97;;
173;SDS011;75;48.784;9.364;2022-07-29T07:14:47;5.70;;;5.37;;
173;SDS011;75;48.784;9.364;2022-07-29T07:17:13;7.97;;;5.50;;
173;SDS011;75;48.784;9.364;2022-07-29T07:19:38;6.40;;;5.53;;
173;SDS011;75;48.784;9.364;2022-07-29T07:22:04;6.13;;;5.13;;
173;SDS011;75;48.784;9.364;2022-07-29T07:24:30;5.60;;;5.33;;
173;SDS011;75;48.784;9.364;2022-07-29T07:26:55;7.00;;;5.10;;
173;SDS011;75;48.784;9.364;2022-07-29T07:29:21;6.27;;;5.17;;
173;SDS011;75;48.784;9.364;2022-07-29T07:31:47;5.80;;;4.90;;
173;SDS011;75;48.784;9.364;2022-07-29T07:34:12;8.40;;;5.37;;
173;SDS011;75;48.784;9.364;2022-07-29T07:36:38;6.10;;;5.20;;
173;SDS011;75;48.784;9.364;2022-07-29T07:39:03;6.37;;;5.03;;
173;SDS011;75;48.784;9.364;2022-07-29T07:41:30;7.03;;;5.00;;
173;SDS011;75;48.784;9.364;2022-07-29T07:43:56;7.47;;;5.43;;
173;SDS011;75;48.784;9.364;2022-07-29T07:46:21;7.27;;;5.40;;
173;SDS011;75;48.784;9.364;2022-07-29T07:48:47;5.57;;;5.20;;
173;SDS011;75;48.784;9.364;2022-07-29T07:51:13;6.40;;;5.30;;
173;SDS011;75;48.784;9.364;2022-07-29T07:53:38;7.50;;;5.40;;
173;SDS011;75;48.784;9.364;2022-07-29T07:56:04;9.33;;;5.80;;
173;SDS011;75;48.784;9.364;2022-07-29T07:58:31;8.60;;;5.87;;
173;SDS011;75;48.784;9.364;2022-07-29T08:00:57;7.40;;;5.37;;
173;SDS011;75;48.784;9.364;2022-07-29T08:03:23;8.50;;;5.90;;
173;SDS011;75;48.784;9.364;2022-07-29T08:05:48;6.37;;;5.63;;
173;SDS011;75;48.784;9.364;2022-07-29T08:08:16;7.10;;;6.07;;
173;SDS011;75;48.784;9.364;2022-07-29T08:10:42;5.93;;;5.70;;
173;SDS011;75;48.784;9.364;2022-07-29T08:13:17;7.33;;;5.10;;
173;SDS011;75;48.784;9.364;2022-07-29T08:15:44;7.40;;;5.70;;
173;SDS011;75;48.784;9.364;2022-07-29T08:18:10;5.80;;;5.53;;
173;SDS011;75;48.784;9.364;2022-07-29T08:20:37;10.60;;;5.90;;
173;SDS011;75;48.784;9.364;2022-07-29T08:23:05;7.67;;;6.07;;
173;SDS011;75;48.784;9.364;2022-07-29T08:25:33;6.00;;;5.60;;
173;SDS011;75;48.784;9.364;2022-07-29T08:28:00;9.43;;;5.80;;
173;SDS011;75;48.784;9.364;2022-07-29T08:30:26;6.83;;;6.00;;
173;SDS011;75;48.784;9.364;2022-07-29T08:32:52;6.43;;;6.07;;
173;SDS011;75;48.784;9.364;2022-07-29T08:35:20;7.30;;;6.10;;
173;SDS011;75;48.784;9.364;2022-07-29T08:37:47;7.07;;;5.90;;
173;SDS011;75;48.784;9.364;2022-07-29T08:40:13;7.17;;;6.40;;
173;SDS011;75;48.784;9.364;2022-07-29T08:42:39;6.53;;;5.80;;
173;SDS011;75;48.784;9.364;2022-07-29T08:45:05;7.80;;;6.40;;
173;SDS011;75;48.784;9.364;2022-07-29T08:47:31;7.23;;;5.83;;
173;SDS011;75;48.784;9.364;2022-07-29T08:49:58;9.20;;;6.60;;
173;SDS011;75;48.784;9.364;2022-07-29T08:52:25;8.40;;;6.13;;
173;SDS011;75;48.784;9.364;2022-07-29T08:54:52;8.80;;;6.20;;
173;SDS011;75;48.784;9.364;2022-07-29T08:57:19;6.87;;;6.50;;
173;SDS011;75;48.784;9.364;2022-07-29T08:59:46;8.30;;;6.40;;
173;SDS011;75;48.784;9.364;2022-07-29T09:02:21;8.90;;;6.60;;
173;SDS011;75;48.784;9.364;2022-07-29T09:04:48;8.73;;;6.90;;
173;SDS011;75;48.784;9.364;2022-07-29T09:07:14;12.90;;;7.03;;
173;SDS011;75;48.784;9.364;2022-07-29T09:09:41;7.83;;;6.80;;
173;SDS011;75;48.784;9.364;2022-07-29T09:12:08;8.60;;;6.80;;
173;SDS011;75;48.784;9.364;2022-07-29T09:14:37;8.23;;;7.00;;
173;SDS011;75;48.784;9.364;2022-07-29T09:17:04;9.00;;;6.60;;
173;SDS011;75;48.784;9.364;2022-07-29T09:19:31;9.43;;;7.20;;
173;SDS011;75;48.784;9.364;2022-07-29T09:22:00;8.13;;;7.03;;
173;SDS011;75;48.784;9.364;2022-07-29T09:27:07;9.23;;;7.40;;
173;SDS011;75;48.784;9.364;2022-07-29T09:29:43;9.00;;;7.30;;
173;SDS011;75;48.784;9.364;2022-07-29T09:32:09;7.87;;;6.90;;
173;SDS011;75;48.784;9.364;2022-07-29T09:34:35;9.73;;;7.60;;
173;SDS011;75;48.784;9.364;2022-07-29T09:37:02;9.17;;;7.30;;
173;SDS011;75;48.784;9.364;2022-07-29T09:42:03;8.00;;;6.80;;
173;SDS011;75;48.784;9.364;2022-07-29T09:44:46;8.73;;;6.90;;
173;SDS011;75;48.784;9.364;2022-07-29T09:47:13;10.80;;;8.13;;
173;SDS011;75;48.784;9.364;2022-07-29T09:52:23;10.00;;;7.70;;
173;SDS011;75;48.784;9.364;2022-07-29T09:54:50;10.10;;;7.90;;
173;SDS011;75;48.784;9.364;2022-07-29T09:57:26;9.20;;;6.90;;
173;SDS011;75;48.784;9.364;2022-07-29T10:00:26;14.73;;;7.90;;
173;SDS011;75;48.784;9.364;2022-07-29T10:02:47;9.70;;;7.33;;
173;SDS011;75;48.784;9.364;2022-07-29T10:05:16;8.70;;;7.30;;
173;SDS011;75;48.784;9.364;2022-07-29T10:07:50;8.33;;;7.30;;
173;SDS011;75;48.784;9.364;2022-07-29T10:10:22;13.10;;;8.70;;
173;SDS011;75;48.784;9.364;2022-07-29T10:12:50;9.47;;;7.40;;
173;SDS011;75;48.784;9.364;2022-07-29T10:15:23;9.27;;;7.53;;
173;SDS011;75;48.784;9.364;2022-07-29T10:17:50;10.20;;;7.17;;
173;SDS011;75;48.784;9.364;2022-07-29T10:20:17;8.80;;;7.47;;
173;SDS011;75;48.784;9.364;2022-07-29T10:22:44;8.50;;;7.20;;
173;SDS011;75;48.784;9.364;2022-07-29T10:25:11;11.63;;;7.73;;
173;SDS011;75;48.784;9.364;2022-07-29T10:27:37;9.77;;;7.60;;
173;SDS011;75;48.784;9.364;2022-07-29T10:30:04;8.53;;;7.70;;
173;SDS011;75;48.784;9.364;2022-07-29T10:35:21;8.17;;;7.03;;
173;SDS011;75;48.784;9.364;2022-07-29T10:43:46;9.13;;;7.57;;
173;SDS011;75;48.784;9.364;2022-07-29T10:46:13;8.50;;;7.20;;
173;SDS011;75;48.784;9.364;2022-07-29T10:54:18;11.00;;;7.80;;
173;SDS011;75;48.784;9.364;2022-07-29T10:59:48;8.77;;;7.57;;
173;SDS011;75;48.784;9.364;2022-07-29T11:05:18;10.97;;;8.47;;
173;SDS011;75;48.784;9.364;2022-07-29T11:10:37;14.33;;;8.30;;
173;SDS011;75;48.784;9.364;2022-07-29T11:13:04;11.30;;;7.77;;
173;SDS011;75;48.784;9.364;2022-07-29T11:15:32;9.47;;;7.37;;
173;SDS011;75;48.784;9.364;2022-07-29T11:18:23;9.50;;;7.23;;
173;SDS011;75;48.784;9.364;2022-07-29T11:20:51;10.83;;;8.20;;
173;SDS011;75;48.784;9.364;2022-07-29T11:23:26;11.87;;;8.23;;
173;SDS011;75;48.784;9.364;2022-07-29T11:28:36;12.90;;;9.00;;
173;SDS011;75;48.784;9.364;2022-07-29T11:31:36;10.90;;;9.00;;
173;SDS011;75;48.784;9.364;2022-07-29T11:34:17;12.20;;;9.30;;
173;SDS011;75;48.784;9.364;2022-07-29T11:39:32;18.70;;;9.83;;
173;SDS011;75;48.784;9.364;2022-07-29T11:47:53;11.77;;;9.03;;
173;SDS011;75;48.784;9.364;2022-07-29T11:50:30;17.50;;;10.53;;
173;SDS011;75;48.784;9.364;2022-07-29T11:53:00;16.50;;;10.80;;
173;SDS011;75;48.784;9.364;2022-07-29T11:55:28;12.80;;;8.33;;
173;SDS011;75;48.784;9.364;2022-07-29T11:57:55;12.40;;;9.10;;
173;SDS011;75;48.784;9.364;2022-07-29T12:00:26;10.00;;;7.60;;
173;SDS011;75;48.784;9.364;2022-07-29T12:03:02;9.17;;;7.33;;
173;SDS011;75;48.784;9.364;2022-07-29T12:05:33;9.03;;;7.40;;
173;SDS011;75;48.784;9.364;2022-07-29T12:08:04;7.67;;;6.37;;
173;SDS011;75;48.784;9.364;2022-07-29T12:10:31;8.57;;;6.07;;
173;SDS011;75;48.784;9.364;2022-07-29T12:12:57;12.93;;;7.40;;
173;SDS011;75;48.784;9.364;2022-07-29T12:15:22;9.20;;;6.83;;
173;SDS011;75;48.784;9.364;2022-07-29T12:17:50;12.43;;;8.13;;
173;SDS011;75;48.784;9.364;2022-07-29T12:20:22;10.10;;;7.90;;
173;SDS011;75;48.784;9.364;2022-07-29T12:22:53;9.60;;;7.03;;
173;SDS011;75;48.784;9.364;2022-07-29T12:25:20;14.53;;;7.33;;
173;SDS011;75;48.784;9.364;2022-07-29T12:27:47;8.77;;;7.43;;
173;SDS011;75;48.784;9.364;2022-07-29T12:30:22;10.43;;;7.30;;
173;SDS011;75;48.784;9.364;2022-07-29T12:32:48;7.77;;;5.80;;
173;SDS011;75;48.784;9.364;2022-07-29T12:35:15;6.83;;;5.40;;
173;SDS011;75;48.784;9.364;2022-07-29T12:37:44;7.13;;;5.63;;
173;SDS011;75;48.784;9.364;2022-07-29T12:40:12;6.70;;;5.50;;
173;SDS011;75;48.784;9.364;2022-07-29T12:42:41;10.50;;;6.77;;
173;SDS011;75;48.784;9.364;2022-07-29T12:45:30;7.43;;;4.70;;
173;SDS011;75;48.784;9.364;2022-07-29T12:47:56;5.70;;;4.70;;
173;SDS011;75;48.784;9.364;2022-07-29T12:50:22;6.67;;;4.80;;
173;SDS011;75;48.784;9.364;2022-07-29T12:52:48;8.00;;;4.87;;
173;SDS011;75;48.784;9.364;2022-07-29T12:55:14;7.50;;;5.20;;
173;SDS011;75;48.784;9.364;2022-07-29T12:57:46;7.37;;;5.33;;
173;SDS011;75;48.784;9.364;2022-07-29T13:00:15;6.30;;;5.10;;
173;SDS011;75;48.784;9.364;2022-07-29T13:02:42;7.33;;;5.57;;
173;SDS011;75;48.784;9.364;2022-07-29T13:05:09;5.73;;;5.20;;
173;SDS011;75;48.784;9.364;2022-07-29T13:07:36;7.60;;;5.50;;
173;SDS011;75;48.784;9.364;2022-07-29T13:12:38;5.00;;;4.77;;
173;SDS011;75;48.784;9.364;2022-07-29T13:15:22;6.40;;;5.23;;
173;SDS011;75;48.784;9.364;2022-07-29T13:17:48;6.83;;;5.50;;
173;SDS011;75;48.784;9.364;2022-07-29T13:20:13;7.53;;;5.60;;
173;SDS011;75;48.784;9.364;2022-07-29T13:22:42;6.03;;;5.23;;
173;SDS011;75;48.784;9.364;2022-07-29T13:25:11;5.60;;;5.27;;
173;SDS011;75;48.784;9.364;2022-07-29T13:27:38;5.30;;;4.90;;
173;SDS011;75;48.784;9.364;2022-07-29T13:30:05;6.80;;;5.37;;
173;SDS011;75;48.784;9.364;2022-07-29T13:32:32;5.60;;;4.80;;
173;SDS011;75;48.784;9.364;2022-07-29T13:35:05;5.23;;;4.80;;
173;SDS011;75;48.784;9.364;2022-07-29T13:37:32;6.60;;;4.97;;
173;SDS011;75;48.784;9.364;2022-07-29T13:40:00;6.23;;;5.50;;
173;SDS011;75;48.784;9.364;2022-07-29T13:42:28;8.57;;;5.60;;
173;SDS011;75;48.784;9.364;2022-07-29T13:44:53;7.73;;;5.30;;
173;SDS011;75;48.784;9.364;2022-07-29T13:47:19;6.73;;;5.70;;
173;SDS011;75;48.784;9.364;2022-07-29T13:49:46;12.97;;;6.70;;
173;SDS011;75;48.784;9.364;2022-07-29T13:52:12;7.93;;;6.63;;
173;SDS011;75;48.784;9.364;2022-07-29T13:54:38;7.70;;;6.47;;
173;SDS011;75;48.784;9.364;2022-07-29T13:57:04;10.40;;;7.60;;
173;SDS011;75;48.784;9.364;2022-07-29T13:59:30;10.10;;;8.40;;
173;SDS011;75;48.784;9.364;2022-07-29T14:01:56;9.00;;;7.50;;
173;SDS011;75;48.784;9.364;2022-07-29T14:04:21;9.40;;;8.23;;
173;SDS011;75;48.784;9.364;2022-07-29T14:06:48;11.63;;;7.90;;
173;SDS011;75;48.784;9.364;2022-07-29T14:09:14;11.40;;;8.30;;
173;SDS011;75;48.784;9.364;2022-07-29T14:11:40;11.63;;;8.47;;
173;SDS011;75;48.784;9.364;2022-07-29T14:14:06;9.20;;;7.93;;
173;SDS011;75;48.784;9.364;2022-07-29T14:16:32;10.50;;;7.80;;
173;SDS011;75;48.784;9.364;2022-07-29T14:18:58;9.23;;;7.80;;
173;SDS011;75;48.784;9.364;2022-07-29T14:21:23;10.80;;;7.73;;
173;SDS011;75;48.784;9.364;2022-07-29T14:23:49;11.10;;;7.90;;
173;SDS011;75;48.784;9.364;2022-07-29T14:26:15;10.90;;;7.30;;
173;SDS011;75;48.784;9.364;2022-07-29T14:28:41;10.43;;;7.20;;
173;SDS011;75;48.784;9.364;2022-07-29T14:31:07;7.80;;;7.07;;
173;SDS011;75;48.784;9.364;2022-07-29T14:33:33;10.10;;;8.07;;
173;SDS011;75;48.784;9.364;2022-07-29T14:35:58;9.03;;;8.17;;
173;SDS011;75;48.784;9.364;2022-07-29T14:38:24;8.90;;;8.27;;
173;SDS011;75;48.784;9.364;2022-07-29T14:40:50;9.43;;;8.50;;
173;SDS011;75;48.784;9.364;2022-07-29T14:43:16;12.43;;;8.47;;
173;SDS011;75;48.784;9.364;2022-07-29T14:45:42;8.70;;;7.83;;
173;SDS011;75;48.784;9.364;2022-07-29T14:48:07;9.83;;;8.30;;
173;SDS011;75;48.784;9.364;2022-07-29T14:50:33;10.47;;;8.70;;
173;SDS011;75;48.784;9.364;2022-07-29T14:52:59;8.60;;;8.10;;
173;SDS011;75;48.784;9.364;2022-07-29T14:55:25;12.47;;;9.00;;
173;SDS011;75;48.784;9.364;2022-07-29T14:57:51;8.93;;;8.43;;
173;SDS011;75;48.784;9.364;2022-07-29T15:00:17;9.93;;;8.80;;
173;SDS011;75;48.784;9.364;2022-07-29T15:02:43;10.10;;;8.50;;
173;SDS011;75;48.784;9.364;2022-07-29T15:05:08;11.83;;;8.50;;
173;SDS011;75;48.784;9.364;2022-07-29T15:07:34;8.43;;;7.97;;
173;SDS011;75;48.784;9.364;2022-07-29T15:09:59;9.00;;;8.43;;
173;SDS011;75;48.784;9.364;2022-07-29T15:12:25;9.20;;;8.70;;
173;SDS011;75;48.784;9.364;2022-07-29T15:14:51;8.40;;;7.97;;
173;SDS011;75;48.784;9.364;2022-07-29T15:17:16;7.70;;;7.20;;
173;SDS011;75;48.784;9.364;2022-07-29T15:19:42;9.77;;;8.43;;
173;SDS011;75;48.784;9.364;2022-07-29T15:22:08;11.00;;;8.00;;
173;SDS011;75;48.784;9.364;2022-07-29T15:24:33;9.37;;;8.03;;
173;SDS011;75;48.784;9.364;2022-07-29T15:26:59;9.73;;;7.93;;
173;SDS011;75;48.784;9.364;2022-07-29T15:29:24;9.90;;;7.60;;
173;SDS011;75;48.784;9.364;2022-07-29T15:31:50;9.60;;;7.87;;
173;SDS011;75;48.784;9.364;2022-07-29T15:34:16;11.67;;;7.73;;
173;SDS011;75;48.784;9.364;2022-07-29T15:36:41;11.93;;;7.53;;
173;SDS011;75;48.784;9.364;2022-07-29T15:39:07;8.63;;;7.40;;
173;SDS011;75;48.784;9.364;2022-07-29T15:41:34;8.97;;;7.37;;
173;SDS011;75;48.784;9.364;2022-07-29T15:43:59;8.87;;;7.43;;
173;SDS011;75;48.784;9.364;2022-07-29T15:46:25;7.30;;;6.90;;
173;SDS011;75;48.784;9.364;2022-07-29T15:49:09;11.23;;;7.77;;
173;SDS011;75;48.784;9.364;2022-07-29T15:51:35;8.33;;;7.40;;
173;SDS011;75;48.784;9.364;2022-07-29T15:54:01;8.80;;;7.80;;
173;SDS011;75;48.784;9.364;2022-07-29T15:56:27;8.63;;;7.27;;
173;SDS011;75;48.784;9.364;2022-07-29T15:58:54;11.23;;;7.30;;
173;SDS011;75;48.784;9.364;2022-07-29T16:01:19;7.93;;;7.43;;
173;SDS011;75;48.784;9.364;2022-07-29T16:03:45;7.33;;;6.97;;
173;SDS011;75;48.784;9.364;2022-07-29T16:06:11;7.80;;;6.70;;
173;SDS011;75;48.784;9.364;2022-07-29T16:08:37;8.47;;;7.20;;
173;SDS011;75;48.784;9.364;2022-07-29T16:11:03;8.53;;;7.47;;
173;SDS011;75;48.784;9.364;2022-07-29T16:13:28;7.20;;;6.60;;
173;SDS011;75;48.784;9.364;2022-07-29T16:15:54;9.00;;;6.60;;
173;SDS011;75;48.784;9.364;2022-07-29T16:18:19;8.90;;;7.40;;
173;SDS011;75;48.784;9.364;2022-07-29T16:20:45;7.00;;;6.30;;
173;SDS011;75;48.784;9.364;2022-07-29T16:23:11;8.67;;;6.50;;
173;SDS011;75;48.784;9.364;2022-07-29T16:25:40;7.40;;;7.10;;
173;SDS011;75;48.784;9.364;2022-07-29T16:28:06;8.20;;;6.73;;
173;SDS011;75;48.784;9.364;2022-07-29T16:30:33;8.93;;;7.03;;
173;SDS011;75;48.784;9.364;2022-07-29T16:32:59;8.03;;;7.07;;
173;SDS011;75;48.784;9.364;2022-07-29T16:35:25;8.37;;;7.40;;
173;SDS011;75;48.784;9.364;2022-07-29T16:37:51;10.50;;;9.03;;
173;SDS011;75;48.784;9.364;2022-07-29T16:40:16;9.67;;;7.20;;
173;SDS011;75;48.784;9.364;2022-07-29T16:42:42;8.27;;;7.50;;
173;SDS011;75;48.784;9.364;2022-07-29T16:45:08;7.40;;;7.00;;
173;SDS011;75;48.784;9.364;2022-07-29T16:47:34;8.30;;;7.13;;
173;SDS011;75;48.784;9.364;2022-07-29T16:49:59;8.10;;;7.50;;
173;SDS011;75;48.784;9.364;2022-07-29T16:52:25;11.87;;;8.20;;
173;SDS011;75;48.784;9.364;2022-07-29T16:54:51;11.23;;;7.60;;
173;SDS011;75;48.784;9.364;2022-07-29T16:57:16;7.67;;;6.87;;